Time;durP1;ratioP1;P1;durP2;ratioP2;P2;SDS_P1;SDS_P2;PMS_P1;PMS_P2;Temp;Humidity;BMP_temperature;BMP_pressure;BME280_temperature;BME280_humidity;BME280_pressure;Samples;Min_cycle;Max_cycle;Signal;HPM_P1;HPM_P2
2022/06/23 00:02:01;;;;;;;;;;;;;;;-149.78;100.00;50013.81;5072845;28;20062;-71
2022/06/23 00:04:29;;;;;;;;;;;;;;;-149.78;100.00;49982.53;5074911;28;20569;-71
2022/06/23 00:07:13;;;;;;;;;;;;;;;-149.78;100.00;49994.25;5081649;28;19927;-71
2022/06/23 00:09:44;;;;;;;;;;;;;;;-149.78;100.00;50050.97;5081540;28;20249;-71
2022/06/23 00:12:19;;;;;;;;;;;;;;;-149.78;100.00;50017.72;5092288;28;19916;-71
2022/06/23 00:14:45;;;;;;;;;;;;;;;-149.78;100.00;50013.81;5092889;28;19916;-71
2022/06/23 00:17:23;;;;;;;;;;;;;;;-149.78;100.00;50017.72;5085899;28;19943;-71
2022/06/23 00:19:49;;;;;;;;;;;;;;;-149.78;100.00;50029.47;5082147;28;19915;-71
2022/06/23 00:22:16;;;;;;;;;;;;;;;-149.78;100.00;50015.78;5079053;28;20244;-71
2022/06/23 00:24:42;;;;;;;;;;;;;;;-149.78;100.00;50025.56;5085119;28;19919;-71
2022/06/23 00:27:18;;;;;;;;;;;;;;;-149.78;100.00;50023.59;5077846;28;20268;-71
2022/06/23 00:29:44;;;;;;;;;;;;;;;-149.78;100.00;50004.03;5075654;28;19986;-71
2022/06/23 00:32:10;;;;;;;;;;;;;;;-149.78;100.00;50025.56;5073906;28;19916;-71
2022/06/23 00:34:37;;;;;;;;;;;;;;;-149.78;100.00;50021.63;5076513;28;19969;-72
2022/06/23 00:37:03;;;;;;;;;;;;;;;-149.78;100.00;50035.34;5073217;28;20253;-71
2022/06/23 00:39:32;;;;;;;;;;;;;;;-149.78;100.00;50004.03;5081498;28;19954;-71
2022/06/23 00:41:58;;;;;;;;;;;;;;;-149.78;100.00;50052.94;5088551;28;19977;-71
2022/06/23 00:44:37;;;;;;;;;;;;;;;-149.78;100.00;50017.72;5082070;28;19924;-71
2022/06/23 00:47:05;;;;;;;;;;;;;;;-149.78;100.00;50031.41;5079708;28;19916;-71
2022/06/23 00:49:39;;;;;;;;;;;;;;;-149.78;100.00;50049.03;5085527;28;19970;-71
2022/06/23 00:52:20;;;;;;;;;;;;;;;-149.78;100.00;50037.28;5074325;28;19917;-71
2022/06/23 00:54:49;;;;;;;;;;;;;;;-149.78;100.00;50013.81;5081160;28;19916;-71
2022/06/23 00:57:27;;;;;;;;;;;;;;;-149.78;100.00;50025.56;5078943;28;19920;-71
2022/06/23 00:59:55;;;;;;;;;;;;;;;-149.78;100.00;49974.72;5091299;28;19923;-71
2022/06/23 01:02:26;;;;;;;;;;;;;;;-149.78;100.00;50017.72;5074187;28;19968;-71
2022/06/23 01:05:01;;;;;;;;;;;;;;;-149.78;100.00;50029.47;5082799;28;19920;-71
2022/06/23 01:07:35;;;;;;;;;;;;;;;-149.78;100.00;50013.81;5085574;28;19923;-71
2022/06/23 01:10:13;;;;;;;;;;;;;;;-149.78;100.00;50045.09;5074140;28;20272;-71
2022/06/23 01:12:43;;;;;;;;;;;;;;;-149.78;100.00;50056.84;5095164;28;20307;-71
2022/06/23 01:15:30;;;;;;;;;;;;;;;-149.78;100.00;50019.69;5092376;28;19917;-71
2022/06/23 01:18:00;;;;;;;;;;;;;;;-149.78;100.00;49994.25;5088513;28;19916;-71
2022/06/23 01:20:38;;;;;;;;;;;;;;;-149.78;100.00;50052.94;5076103;28;19923;-71
2022/06/23 01:23:04;;;;;;;;;;;;;;;-149.78;100.00;50013.81;5082528;28;19926;-71
2022/06/23 01:25:40;;;;;;;;;;;;;;;-149.78;100.00;50009.91;5087302;28;20007;-71
2022/06/23 01:28:13;;;;;;;;;;;;;;;-149.78;100.00;50060.75;5084403;28;19939;-71
2022/06/23 01:30:50;;;;;;;;;;;;;;;-149.78;100.00;50049.03;5090481;28;19916;-71
2022/06/23 01:33:22;;;;;;;;;;;;;;;-149.78;100.00;50064.66;5088053;28;19923;-71
2022/06/23 01:36:20;;;;;;;;;;;;;;;-149.78;100.00;50037.28;5080075;28;19916;-71
2022/06/23 01:39:04;;;;;;;;;;;;;;;-149.78;100.00;50037.28;5077373;28;19969;-71
2022/06/23 01:41:42;;;;;;;;;;;;;;;-149.78;100.00;50037.28;5085018;28;19920;-71
2022/06/23 01:44:07;;;;;;;;;;;;;;;-149.78;100.00;50056.84;5093330;28;19919;-71
2022/06/23 01:46:36;;;;;;;;;;;;;;;-149.78;100.00;50080.31;5091391;28;20025;-71
2022/06/23 01:49:08;;;;;;;;;;;;;;;-149.78;100.00;50041.19;5077000;28;20007;-71
2022/06/23 01:51:45;;;;;;;;;;;;;;;-149.78;100.00;50060.75;5089576;28;19920;-71
2022/06/23 01:54:20;;;;;;;;;;;;;;;-149.78;100.00;50058.78;5075869;28;19970;-71
2022/06/23 01:56:58;;;;;;;;;;;;;;;-149.78;100.00;50060.75;5082100;28;19916;-70
2022/06/23 01:59:42;;;;;;;;;;;;;;;-149.78;100.00;50049.03;5084735;28;19920;-71
2022/06/23 02:02:10;;;;;;;;;;;;;;;-149.78;100.00;50090.09;5080003;28;19982;-70
2022/06/23 02:04:55;;;;;;;;;;;;;;;-149.78;100.00;50097.91;5083434;28;19921;-72
2022/06/23 02:07:21;;;;;;;;;;;;;;;-149.78;100.00;50088.13;5081445;28;19988;-72
2022/06/23 02:09:52;;;;;;;;;;;;;;;-149.78;100.00;50072.50;5088922;28;20406;-72
2022/06/23 02:12:28;;;;;;;;;;;;;;;-149.78;100.00;50078.34;5089336;28;19974;-71
2022/06/23 02:15:04;;;;;;;;;;;;;;;-149.78;100.00;50084.22;5087513;28;19941;-71
2022/06/23 02:17:30;;;;;;;;;;;;;;;-149.78;100.00;50056.84;5084734;28;19923;-71
2022/06/23 02:19:58;;;;;;;;;;;;;;;-149.78;100.00;50039.25;5091518;28;19916;-71
2022/06/23 02:22:34;;;;;;;;;;;;;;;-149.78;100.00;50064.66;5075475;28;19920;-71
2022/06/23 02:25:03;;;;;;;;;;;;;;;-149.78;100.00;50084.22;5075853;28;20462;-71
2022/06/23 02:27:31;;;;;;;;;;;;;;;-149.78;100.00;50090.09;5087776;28;20010;-71
2022/06/23 02:30:03;;;;;;;;;;;;;;;-149.78;100.00;50076.41;5086343;28;19916;-71
2022/06/23 02:32:29;;;;;;;;;;;;;;;-149.78;100.00;50060.75;5089826;28;19923;-71
2022/06/23 02:35:08;;;;;;;;;;;;;;;-149.78;100.00;50094.00;5078650;28;20316;-71
2022/06/23 02:37:45;;;;;;;;;;;;;;;-149.78;100.00;50041.19;5079691;28;20352;-71
2022/06/23 02:40:16;;;;;;;;;;;;;;;-149.78;100.00;50064.66;5080616;28;20295;-71
2022/06/23 02:42:42;;;;;;;;;;;;;;;-149.78;100.00;50099.88;5087871;28;19931;-71
2022/06/23 02:45:07;;;;;;;;;;;;;;;-149.78;100.00;50088.13;5074645;28;19921;-71
2022/06/23 02:47:33;;;;;;;;;;;;;;;-149.78;100.00;50084.22;5075146;28;19920;-71
2022/06/23 02:50:07;;;;;;;;;;;;;;;-149.78;100.00;50060.75;5081725;28;19939;-71
2022/06/23 02:52:52;;;;;;;;;;;;;;;-149.78;100.00;50095.94;5083780;28;20073;-71
2022/06/23 02:55:27;;;;;;;;;;;;;;;-149.78;100.00;50076.41;5086268;28;19917;-71
2022/06/23 02:57:59;;;;;;;;;;;;;;;-149.78;100.00;50076.41;5081149;28;20260;-71
2022/06/23 03:00:32;;;;;;;;;;;;;;;-149.78;100.00;50072.50;5089185;28;20358;-71
2022/06/23 03:02:58;;;;;;;;;;;;;;;-149.78;100.00;50094.00;5088562;28;19920;-71
2022/06/23 03:05:29;;;;;;;;;;;;;;;-149.78;100.00;50050.97;5079724;28;19931;-71
2022/06/23 03:07:59;;;;;;;;;;;;;;;-149.78;100.00;50090.09;5082574;28;20276;-71
2022/06/23 03:10:28;;;;;;;;;;;;;;;-149.78;100.00;50049.03;5073647;28;19921;-71
2022/06/23 03:13:09;;;;;;;;;;;;;;;-149.78;100.00;50041.19;5075113;28;19921;-71
2022/06/23 03:15:39;;;;;;;;;;;;;;;-149.78;100.00;50056.84;5075645;28;19916;-71
2022/06/23 03:18:09;;;;;;;;;;;;;;;-149.78;100.00;50060.75;5079713;28;19924;-71
2022/06/23 03:20:47;;;;;;;;;;;;;;;-149.78;100.00;50101.81;5089915;28;19916;-72
2022/06/23 03:23:17;;;;;;;;;;;;;;;-149.78;100.00;50088.13;5080997;28;19924;-72
2022/06/23 03:25:47;;;;;;;;;;;;;;;-149.78;100.00;50084.22;5091899;28;19959;-71
2022/06/23 03:28:31;;;;;;;;;;;;;;;-149.78;100.00;50099.88;5079746;28;19927;-71
2022/06/23 03:31:02;;;;;;;;;;;;;;;-149.78;100.00;50076.41;5072245;28;19923;-71
2022/06/23 03:33:33;;;;;;;;;;;;;;;-149.78;100.00;50099.88;5089870;28;19916;-71
2022/06/23 03:36:03;;;;;;;;;;;;;;;-149.78;100.00;50076.41;5078974;28;19923;-72
2022/06/23 03:41:36;;;;;;;;;;;;;;;-149.78;100.00;50076.41;5073447;28;19920;-71
2022/06/23 03:44:20;;;;;;;;;;;;;;;-149.78;100.00;50072.50;5082188;28;19986;-71
2022/06/23 03:46:56;;;;;;;;;;;;;;;-149.78;100.00;50068.56;5081922;28;20274;-71
2022/06/23 03:49:41;;;;;;;;;;;;;;;-149.78;100.00;50099.88;5078123;28;19921;-71
2022/06/23 03:52:16;;;;;;;;;;;;;;;-149.78;100.00;50084.22;5081310;28;19917;-72
2022/06/23 03:54:47;;;;;;;;;;;;;;;-149.78;100.00;50076.41;5073877;28;19959;-71
2022/06/23 03:57:18;;;;;;;;;;;;;;;-149.78;100.00;50111.59;5086639;28;19923;-71
2022/06/23 04:00:01;;;;;;;;;;;;;;;-149.78;100.00;50076.41;5074119;28;20375;-71
2022/06/23 04:02:31;;;;;;;;;;;;;;;-149.78;100.00;50064.66;5085673;28;19921;-71
2022/06/23 04:05:14;;;;;;;;;;;;;;;-149.78;100.00;50101.81;5086241;28;20003;-71
2022/06/23 04:07:43;;;;;;;;;;;;;;;-149.78;100.00;50076.41;5087419;28;19916;-71
2022/06/23 04:10:11;;;;;;;;;;;;;;;-149.78;100.00;50103.78;5083647;28;19916;-71
2022/06/23 04:12:37;;;;;;;;;;;;;;;-149.78;100.00;50107.69;5085091;28;19999;-71
2022/06/23 04:15:08;;;;;;;;;;;;;;;-149.78;100.00;50094.00;5073596;28;19928;-72
2022/06/23 04:17:38;;;;;;;;;;;;;;;-149.78;100.00;50084.22;5085281;28;19999;-71
2022/06/23 04:20:22;;;;;;;;;;;;;;;-149.78;100.00;50088.13;5080306;28;19916;-71
2022/06/23 04:22:52;;;;;;;;;;;;;;;-149.78;100.00;50084.22;5092003;28;19974;-71
2022/06/23 04:25:22;;;;;;;;;;;;;;;-149.78;100.00;50094.00;5091964;28;19962;-71
2022/06/23 04:27:55;;;;;;;;;;;;;;;-149.78;100.00;50080.31;5077178;28;19995;-71
2022/06/23 04:30:32;;;;;;;;;;;;;;;-149.78;100.00;50092.03;5078797;28;20019;-71
2022/06/23 04:33:00;;;;;;;;;;;;;;;-149.78;100.00;50103.78;5078437;28;19916;-71
2022/06/23 04:35:27;;;;;;;;;;;;;;;-149.78;100.00;50045.09;5079486;28;19916;-71
2022/06/23 04:37:55;;;;;;;;;;;;;;;-149.78;100.00;50123.34;5085846;28;19916;-71
2022/06/23 04:40:23;;;;;;;;;;;;;;;-149.78;100.00;50080.31;5072148;28;19920;-71
2022/06/23 04:42:53;;;;;;;;;;;;;;;-149.78;100.00;50092.03;5079919;28;19920;-71
2022/06/23 04:45:31;;;;;;;;;;;;;;;-149.78;100.00;50084.22;5083357;28;19920;-71
2022/06/23 04:47:58;;;;;;;;;;;;;;;-149.78;100.00;50060.75;5078742;28;19916;-71
2022/06/23 04:50:35;;;;;;;;;;;;;;;-149.78;100.00;50092.03;5084500;28;19927;-71
2022/06/23 04:53:02;;;;;;;;;;;;;;;-149.78;100.00;50072.50;5086353;28;19917;-71
2022/06/23 04:55:30;;;;;;;;;;;;;;;-149.78;100.00;50072.50;5086703;28;19927;-71
2022/06/23 04:57:59;;;;;;;;;;;;;;;-149.78;100.00;50099.88;5088852;28;19916;-71
2022/06/23 05:00:29;;;;;;;;;;;;;;;-149.78;100.00;50072.50;5087552;28;19920;-71
2022/06/23 05:03:12;;;;;;;;;;;;;;;-149.78;100.00;50090.09;5088281;28;19939;-71
2022/06/23 05:05:37;;;;;;;;;;;;;;;-149.78;100.00;50095.94;5074491;28;19920;-71
2022/06/23 05:08:03;;;;;;;;;;;;;;;-149.78;100.00;50099.88;5091995;28;19916;-71
2022/06/23 05:10:51;;;;;;;;;;;;;;;-149.78;100.00;50099.88;5089817;28;20256;-71
2022/06/23 05:13:19;;;;;;;;;;;;;;;-149.78;100.00;50078.34;5088401;28;20297;-71
2022/06/23 05:15:57;;;;;;;;;;;;;;;-149.78;100.00;50099.88;5077302;28;19917;-71
2022/06/23 05:18:24;;;;;;;;;;;;;;;-149.78;100.00;50076.41;5080607;28;20263;-71
2022/06/23 05:20:52;;;;;;;;;;;;;;;-149.78;100.00;50103.78;5081716;28;19916;-71
2022/06/23 05:23:21;;;;;;;;;;;;;;;-149.78;100.00;50056.84;5093287;28;19916;-71
2022/06/23 05:25:50;;;;;;;;;;;;;;;-149.78;100.00;50076.41;5087465;28;19922;-71
2022/06/23 05:28:26;;;;;;;;;;;;;;;-149.78;100.00;50088.13;5089163;28;20327;-71
2022/06/23 05:30:56;;;;;;;;;;;;;;;-149.78;100.00;50092.03;5080519;28;19945;-71
2022/06/23 05:33:30;;;;;;;;;;;;;;;-149.78;100.00;50080.31;5082661;28;19919;-71
2022/06/23 05:35:59;;;;;;;;;;;;;;;-149.78;100.00;50076.41;5064539;28;19924;-71
2022/06/23 05:38:24;;;;;;;;;;;;;;;-149.78;100.00;50092.03;5084325;28;19982;-71
2022/06/23 05:40:52;;;;;;;;;;;;;;;-149.78;100.00;50076.41;5084140;28;19917;-71
2022/06/23 05:43:18;;;;;;;;;;;;;;;-149.78;100.00;50074.44;5076031;28;20030;-71
2022/06/23 05:46:00;;;;;;;;;;;;;;;-149.78;100.00;50080.31;5073859;28;19920;-71
2022/06/23 05:48:35;;;;;;;;;;;;;;;-149.78;100.00;50049.03;5082423;28;19943;-71
2022/06/23 05:51:06;;;;;;;;;;;;;;;-149.78;100.00;50076.41;5081785;28;19921;-71
2022/06/23 05:53:55;;;;;;;;;;;;;;;-149.78;100.00;50052.94;5079557;28;19920;-71
2022/06/23 05:56:25;;;;;;;;;;;;;;;-149.78;100.00;50070.53;5077584;28;20352;-71
2022/06/23 05:58:54;;;;;;;;;;;;;;;-149.78;100.00;50013.81;5081302;28;19946;-71
2022/06/23 06:01:20;;;;;;;;;;;;;;;-149.78;100.00;50045.09;5084429;28;19951;-71
2022/06/23 06:03:52;;;;;;;;;;;;;;;-149.78;100.00;50068.56;5083910;28;19956;-71
2022/06/23 06:06:18;;;;;;;;;;;;;;;-149.78;100.00;50056.84;5077641;28;19959;-71
2022/06/23 06:11:41;;;;;;;;;;;;;;;-149.78;100.00;50045.09;5078687;28;19935;-71
2022/06/23 06:14:07;;;;;;;;;;;;;;;-149.78;100.00;50037.28;5075336;28;19917;-71
2022/06/23 06:16:32;;;;;;;;;;;;;;;-149.78;100.00;50017.72;5083304;28;19930;-73
2022/06/23 06:18:58;;;;;;;;;;;;;;;-149.78;100.00;50033.38;5083958;28;19920;-71
2022/06/23 06:21:25;;;;;;;;;;;;;;;-149.78;100.00;50039.25;5084642;28;20359;-72
2022/06/23 06:23:57;;;;;;;;;;;;;;;-149.78;100.00;50025.56;5083150;28;19920;-70
2022/06/23 06:26:27;;;;;;;;;;;;;;;-149.78;100.00;50045.09;5080783;28;19927;-71
2022/06/23 06:28:59;;;;;;;;;;;;;;;-149.78;100.00;50029.47;5079520;28;19919;-72
2022/06/23 06:31:38;;;;;;;;;;;;;;;-149.78;100.00;49986.44;5087533;28;19924;-71
2022/06/23 06:34:09;;;;;;;;;;;;;;;-149.78;100.00;49966.88;5088176;28;19920;-69
2022/06/23 06:36:41;;;;;;;;;;;;;;;-149.78;100.00;49966.88;5075165;28;20249;-71
2022/06/23 06:39:07;;;;;;;;;;;;;;;-149.78;100.00;49962.97;5079669;28;19916;-70
2022/06/23 06:41:32;;;;;;;;;;;;;;;-149.78;100.00;49935.59;5085500;28;19924;-71
2022/06/23 06:44:00;;;;;;;;;;;;;;;-149.78;100.00;49931.69;5098235;28;19953;-70
2022/06/23 06:46:25;;;;;;;;;;;;;;;-149.78;100.00;49951.25;5102738;28;20137;-69
2022/06/23 06:48:51;;;;;;;;;;;;;;;-149.78;98.04;49921.91;5103246;28;19927;-70
2022/06/23 06:51:19;;;;;;;;;;;;;;;-149.78;93.35;49935.59;5097419;28;20292;-70
2022/06/23 06:53:48;;;;;;;;;;;;;;;-149.78;88.01;49908.22;5081013;28;19935;-68
2022/06/23 06:56:32;;;;;;;;;;;;;;;-149.78;83.62;49916.03;5085810;28;19916;-69
2022/06/23 06:59:13;;;;;;;;;;;;;;;-149.78;76.97;49900.41;5082435;28;19922;-70
2022/06/23 07:01:39;;;;;;;;;;;;;;;-149.78;70.16;49916.03;5084739;28;20429;-68
2022/06/23 07:04:08;;;;;;;;;;;;;;;-149.78;68.15;49898.44;5079219;28;20013;-69
2022/06/23 07:06:42;;;;;;;;;;;;;;;-149.78;69.74;49873.03;5081039;28;19935;-69
2022/06/23 07:09:13;;;;;;;;;;;;;;;-149.78;64.43;49853.47;5083976;28;19934;-67
2022/06/23 07:11:38;;;;;;;;;;;;;;;-149.78;61.30;49873.03;5080460;28;20398;-69
2022/06/23 07:14:22;;;;;;;;;;;;;;;-149.78;58.53;49806.53;5080544;28;19920;-68
2022/06/23 07:17:01;;;;;;;;;;;;;;;-149.78;54.02;49843.69;5086873;28;19966;-67
2022/06/23 07:19:39;;;;;;;;;;;;;;;-149.78;50.78;49810.44;5083226;28;19924;-69
2022/06/23 07:22:22;;;;;;;;;;;;;;;-149.78;48.75;49781.13;5082177;28;19927;-69
2022/06/23 07:24:53;;;;;;;;;;;;;;;-149.78;48.98;49783.06;5082729;28;19916;-69
2022/06/23 07:27:35;;;;;;;;;;;;;;;-149.78;46.70;49767.44;5081723;28;20002;-69
2022/06/23 07:30:03;;;;;;;;;;;;;;;-149.78;43.64;49775.25;5075839;28;20358;-69
2022/06/23 07:32:33;;;;;;;;;;;;;;;-149.78;43.74;49755.69;5079910;28;19944;-70
2022/06/23 07:35:06;;;;;;;;;;;;;;;-149.78;42.08;49734.19;5086796;28;19916;-70
2022/06/23 07:37:36;;;;;;;;;;;;;;;-149.78;40.46;49687.25;5074585;28;19916;-69
2022/06/23 07:40:03;;;;;;;;;;;;;;;-149.78;41.06;49734.19;5078881;28;19920;-69
2022/06/23 07:42:29;;;;;;;;;;;;;;;-149.78;41.40;49740.06;5072826;28;20265;-70
2022/06/23 07:45:05;;;;;;;;;;;;;;;-149.78;39.45;49706.81;5080114;28;19916;-70
2022/06/23 07:47:30;;;;;;;;;;;;;;;-149.78;38.30;49689.22;5079650;28;19923;-70
2022/06/23 07:49:56;;;;;;;;;;;;;;;-149.78;38.73;49704.84;5079129;28;19916;-67
2022/06/23 07:52:23;;;;;;;;;;;;;;;-149.78;37.48;49671.63;5089219;28;19951;-67
2022/06/23 07:54:50;;;;;;;;;;;;;;;-149.78;37.46;49681.38;5089125;28;19916;-67
2022/06/23 07:57:16;;;;;;;;;;;;;;;-149.78;36.38;49611.00;5078149;28;20407;-69
2022/06/23 07:59:50;;;;;;;;;;;;;;;-149.78;35.61;49650.09;5076161;28;19923;-68
2022/06/23 08:02:19;;;;;;;;;;;;;;;-149.78;34.64;49654.00;5090203;28;20398;-68
2022/06/23 08:04:50;;;;;;;;;;;;;;;-149.78;34.24;49611.00;5080553;28;19928;-69
2022/06/23 08:07:16;;;;;;;;;;;;;;;-149.78;34.90;49646.19;5089749;28;19916;-69
2022/06/23 08:09:48;;;;;;;;;;;;;;;-149.78;33.75;49624.69;5084578;28;20324;-70
2022/06/23 08:17:58;;;;;;;;;;;;;;;-149.78;33.89;49630.56;5080657;28;20417;-70
2022/06/23 08:20:24;;;;;;;;;;;;;;;-149.78;35.50;49677.47;5086876;28;19916;-70
2022/06/23 08:22:52;;;;;;;;;;;;;;;-149.78;40.62;49767.44;5073740;28;19985;-69
2022/06/23 08:25:18;;;;;;;;;;;;;;;-149.78;41.41;49700.94;5089263;28;19916;-69
2022/06/23 08:27:45;;;;;;;;;;;;;;;-149.78;39.06;49665.75;5076123;28;19969;-69
2022/06/23 08:30:15;;;;;;;;;;;;;;;-149.78;41.39;49708.75;5086436;28;19970;-71
2022/06/23 08:32:43;;;;;;;;;;;;;;;-149.78;39.68;49677.47;5078592;28;20645;-71
2022/06/23 08:35:11;;;;;;;;;;;;;;;-149.78;36.21;49640.31;5074931;28;19916;-71
2022/06/23 08:37:51;;;;;;;;;;;;;;;-149.78;39.06;49681.38;5084792;28;20348;-71
2022/06/23 08:40:23;;;;;;;;;;;;;;;-149.78;37.24;49646.19;5084222;28;20390;-71
2022/06/23 08:43:00;;;;;;;;;;;;;;;-149.78;36.94;49614.91;5072740;28;19920;-71
2022/06/23 08:45:25;;;;;;;;;;;;;;;-149.78;38.37;49683.34;5078793;28;20267;-71
2022/06/23 08:47:59;;;;;;;;;;;;;;;-149.78;40.40;49704.84;5080340;28;19916;-71
2022/06/23 08:50:38;;;;;;;;;;;;;;;-149.78;40.32;49730.28;5074579;28;20038;-71
2022/06/23 08:53:20;;;;;;;;;;;;;;;-149.78;45.04;49751.78;5081408;28;19920;-70
2022/06/23 08:55:54;;;;;;;;;;;;;;;-149.78;41.52;49681.38;5083409;28;19980;-71
2022/06/23 08:58:19;;;;;;;;;;;;;;;-149.78;40.71;49712.69;5089098;28;20010;-72
2022/06/23 09:01:08;;;;;;;;;;;;;;;-149.78;42.72;49755.69;5084282;28;20045;-71
2022/06/23 09:03:52;;;;;;;;;;;;;;;-149.78;43.73;49747.88;5074849;28;19928;-71
2022/06/23 09:06:37;;;;;;;;;;;;;;;-149.78;40.83;49667.69;5073974;28;19967;-71
2022/06/23 09:09:02;;;;;;;;;;;;;;;-149.78;37.70;49677.47;5082140;28;20044;-72
2022/06/23 09:11:46;;;;;;;;;;;;;;;-149.78;34.76;49593.41;5073180;28;19916;-71
2022/06/23 09:14:30;;;;;;;;;;;;;;;-149.78;35.41;49612.94;5084595;28;19916;-72
2022/06/23 09:16:55;;;;;;;;;;;;;;;-149.78;32.97;49575.81;5083858;28;19963;-72
2022/06/23 09:19:49;;;;;;;;;;;;;;;-149.78;31.41;49575.81;5083484;28;19966;-72
2022/06/23 09:22:22;;;;;;;;;;;;;;;-149.78;30.96;49505.41;5082282;28;20051;-72
2022/06/23 09:24:57;;;;;;;;;;;;;;;-149.78;30.64;49528.88;5082301;28;19916;-72
2022/06/23 09:27:32;;;;;;;;;;;;;;;-149.78;31.88;49571.88;5089826;28;19916;-70
2022/06/23 09:30:06;;;;;;;;;;;;;;;-149.78;30.97;49540.59;5087374;28;20374;-72
2022/06/23 09:32:31;;;;;;;;;;;;;;;-149.78;30.63;49540.59;5077597;28;19916;-72
2022/06/23 09:35:11;;;;;;;;;;;;;;;-149.78;31.33;49556.25;5083370;28;19978;-70
2022/06/23 09:37:37;;;;;;;;;;;;;;;-149.78;30.35;49550.38;5086005;28;20279;-72
2022/06/23 09:40:14;;;;;;;;;;;;;;;-149.78;31.09;49556.25;5082867;28;19924;-70
2022/06/23 09:42:43;;;;;;;;;;;;;;;-149.78;30.56;49571.88;5094111;28;19916;-70
2022/06/23 09:45:14;;;;;;;;;;;;;;;-149.78;29.51;49517.13;5079572;28;19922;-72
2022/06/23 09:47:49;;;;;;;;;;;;;;;-149.78;30.28;49540.59;5089246;28;20401;-70
2022/06/23 09:50:25;;;;;;;;;;;;;;;-149.78;30.34;49526.91;5083808;28;19960;-69
2022/06/23 09:53:05;;;;;;;;;;;;;;;-149.78;30.69;49548.44;5085789;28;20350;-71
2022/06/23 09:55:49;;;;;;;;;;;;;;;-149.78;30.38;49536.69;5079043;28;19923;-69
2022/06/23 09:58:26;;;;;;;;;;;;;;;-149.78;29.18;49528.88;5075443;28;19924;-72
2022/06/23 10:01:00;;;;;;;;;;;;;;;-149.78;30.06;49564.06;5084076;28;19916;-72
2022/06/23 10:03:25;;;;;;;;;;;;;;;-149.78;33.52;49650.09;5092084;28;19923;-71
2022/06/23 10:06:03;;;;;;;;;;;;;;;-149.78;33.81;49654.00;5080314;28;20403;-72
2022/06/23 10:08:54;;;;;;;;;;;;;;;-149.78;32.59;49628.59;5083244;28;19969;-72
2022/06/23 10:11:23;;;;;;;;;;;;;;;-149.78;32.71;49622.72;5083608;28;20431;-72
2022/06/23 10:13:51;;;;;;;;;;;;;;;-149.78;32.29;49603.19;5081589;28;20395;-72
2022/06/23 10:16:21;;;;;;;;;;;;;;;-149.78;32.54;49638.38;5087793;28;20343;-71
2022/06/23 10:18:56;;;;;;;;;;;;;;;-149.78;33.17;49685.31;5087131;28;19923;-73
2022/06/23 10:21:22;;;;;;;;;;;;;;;-149.78;35.69;49712.69;5080779;28;19916;-72
2022/06/23 10:24:02;;;;;;;;;;;;;;;-149.78;37.24;49734.19;5091760;28;19916;-71
2022/06/23 10:26:30;;;;;;;;;;;;;;;-149.78;36.60;49716.59;5074829;28;19921;-72
2022/06/23 10:29:11;;;;;;;;;;;;;;;-149.78;35.97;49708.75;5077940;28;20382;-74
2022/06/23 10:31:45;;;;;;;;;;;;;;;-149.78;36.93;49740.06;5082733;28;19920;-71
2022/06/23 10:34:11;;;;;;;;;;;;;;;-149.78;36.29;49747.88;5087406;28;20283;-70
2022/06/23 10:36:46;;;;;;;;;;;;;;;-149.78;35.89;49697.03;5073262;28;19916;-70
2022/06/23 10:39:11;;;;;;;;;;;;;;;-149.78;34.99;49720.50;5084138;28;19916;-70
2022/06/23 10:41:53;;;;;;;;;;;;;;;-149.78;34.42;49665.75;5084506;28;19969;-70
2022/06/23 10:44:23;;;;;;;;;;;;;;;-149.78;34.80;49663.78;5077360;28;19920;-70
2022/06/23 10:46:54;;;;;;;;;;;;;;;-149.78;35.75;49655.97;5086665;28;19916;-70
2022/06/23 10:49:26;;;;;;;;;;;;;;;-149.78;35.20;49657.94;5085973;28;19927;-73
2022/06/23 10:52:10;;;;;;;;;;;;;;;-149.78;34.68;49673.56;5092032;28;19927;-73
2022/06/23 10:54:57;;;;;;;;;;;;;;;-149.78;34.85;49675.53;5081972;28;19924;-73
2022/06/23 10:57:22;;;;;;;;;;;;;;;-149.78;34.13;49657.94;5078098;28;19923;-73
2022/06/23 11:00:04;;;;;;;;;;;;;;;-149.78;35.09;49720.50;5081300;28;19917;-72
2022/06/23 11:02:29;;;;;;;;;;;;;;;-149.78;38.22;49722.44;5092693;28;19923;-73
2022/06/23 11:05:12;;;;;;;;;;;;;;;-149.78;37.64;49732.22;5082255;28;19920;-72
2022/06/23 11:07:41;;;;;;;;;;;;;;;-149.78;37.44;49742.00;5090027;28;19920;-74
2022/06/23 11:10:26;;;;;;;;;;;;;;;-149.78;38.74;49767.44;5087639;28;20401;-73
2022/06/23 11:13:10;;;;;;;;;;;;;;;-149.78;39.94;49724.41;5086979;28;20018;-71
2022/06/23 11:15:53;;;;;;;;;;;;;;;-149.78;39.98;49743.97;5083553;28;19916;-73
2022/06/23 11:18:22;;;;;;;;;;;;;;;-149.78;38.18;49732.22;5088264;28;19917;-72
2022/06/23 11:20:54;;;;;;;;;;;;;;;-149.78;37.42;49704.84;5075615;28;20292;-73
2022/06/23 11:23:38;;;;;;;;;;;;;;;-149.78;36.35;49695.06;5081432;28;19920;-73
2022/06/23 11:26:15;;;;;;;;;;;;;;;-149.78;36.70;49743.97;5085477;28;20019;-73
2022/06/23 11:28:41;;;;;;;;;;;;;;;-149.78;36.41;49736.13;5080463;28;19924;-73
2022/06/23 11:31:15;;;;;;;;;;;;;;;-149.78;37.11;49742.00;5083900;28;19916;-73
2022/06/23 11:33:59;;;;;;;;;;;;;;;-149.78;39.14;49779.16;5088541;28;20012;-72
2022/06/23 11:36:43;;;;;;;;;;;;;;;-149.78;40.28;49743.97;5086945;28;20264;-73
2022/06/23 11:39:11;;;;;;;;;;;;;;;-149.78;39.32;49747.88;5087913;28;20279;-72
2022/06/23 11:41:42;;;;;;;;;;;;;;;-149.78;37.97;49745.91;5080410;28;19916;-73
2022/06/23 11:44:17;;;;;;;;;;;;;;;-149.78;38.87;49759.59;5081474;28;20018;-73
2022/06/23 11:47:05;;;;;;;;;;;;;;;-149.78;38.50;49736.13;5076928;28;19982;-72
2022/06/23 11:49:31;;;;;;;;;;;;;;;-149.78;37.61;49716.59;5081049;28;19923;-72
2022/06/23 11:51:59;;;;;;;;;;;;;;;-149.78;37.84;49700.94;5076355;28;19928;-72
2022/06/23 11:54:27;;;;;;;;;;;;;;;-149.78;37.03;49736.13;5083900;28;20368;-72
2022/06/23 11:57:11;;;;;;;;;;;;;;;-149.78;38.12;49755.69;5067381;28;20291;-72
2022/06/23 11:59:51;;;;;;;;;;;;;;;-149.78;39.12;49767.44;5071892;28;19959;-71
2022/06/23 12:02:16;;;;;;;;;;;;;;;-149.78;41.62;49779.16;5085065;28;19960;-71
2022/06/23 12:04:57;;;;;;;;;;;;;;;-149.78;40.48;49806.53;5081651;28;20410;-72
2022/06/23 12:07:41;;;;;;;;;;;;;;;-149.78;41.92;49798.72;5084574;28;20014;-72
2022/06/23 12:10:16;;;;;;;;;;;;;;;-149.78;42.37;49767.44;5077231;28;20003;-72
2022/06/23 12:12:43;;;;;;;;;;;;;;;-149.78;44.32;49786.97;5083365;28;19925;-72
2022/06/23 12:15:10;;;;;;;;;;;;;;;-149.78;42.70;49798.72;5083603;28;19916;-73
2022/06/23 12:17:37;;;;;;;;;;;;;;;-149.78;44.02;49826.09;5077460;28;20367;-73
2022/06/23 12:20:11;;;;;;;;;;;;;;;-149.78;44.33;49771.34;5078077;28;20336;-72
2022/06/23 12:22:43;;;;;;;;;;;;;;;-149.78;43.49;49814.34;5086459;28;19920;-73
2022/06/23 12:25:08;;;;;;;;;;;;;;;-149.78;41.99;49771.34;5089984;28;19978;-72
2022/06/23 12:27:52;;;;;;;;;;;;;;;-149.78;41.80;49786.97;5079238;28;19930;-73
2022/06/23 12:30:19;;;;;;;;;;;;;;;-149.78;41.45;49767.44;5078488;28;20302;-73
2022/06/23 12:32:49;;;;;;;;;;;;;;;-149.78;42.13;49763.53;5073255;28;19924;-72
2022/06/23 12:35:33;;;;;;;;;;;;;;;-149.78;41.86;49785.03;5077121;28;19959;-71
2022/06/23 12:38:06;;;;;;;;;;;;;;;-149.78;40.10;49765.47;5077863;28;20402;-71
2022/06/23 12:40:31;;;;;;;;;;;;;;;-149.78;40.24;49767.44;5093419;28;19971;-72
2022/06/23 12:43:02;;;;;;;;;;;;;;;-149.78;40.49;49794.81;5073010;28;19963;-72
2022/06/23 12:45:27;;;;;;;;;;;;;;;-149.78;42.72;49794.81;5072236;28;19916;-72
2022/06/23 12:48:02;;;;;;;;;;;;;;;-149.78;43.29;49765.47;5083413;28;19942;-73
2022/06/23 12:50:50;;;;;;;;;;;;;;;-149.78;43.21;49781.13;5085597;28;19916;-72
2022/06/23 12:53:28;;;;;;;;;;;;;;;-149.78;43.02;49763.53;5080125;28;20275;-72
2022/06/23 12:56:09;;;;;;;;;;;;;;;-149.78;43.25;49759.59;5097531;28;20379;-72
2022/06/23 12:58:46;;;;;;;;;;;;;;;-149.78;44.24;49810.44;5100939;28;19916;-72
2022/06/23 13:01:21;;;;;;;;;;;;;;;-149.78;43.85;49783.06;5101325;28;19924;-71